createdAt,value
2023-05-14T00:00:59.200Z,13.39
2023-05-14T00:03:27.015Z,13.36
2023-05-14T00:05:54.874Z,13.26
2023-05-14T00:08:24.469Z,13.20
2023-05-14T00:10:52.101Z,13.18
2023-05-14T00:13:19.834Z,13.11
2023-05-14T00:15:48.068Z,13.10
2023-05-14T00:18:15.839Z,13.11
2023-05-14T00:20:43.518Z,13.07
2023-05-14T00:23:11.629Z,13.02
2023-05-14T00:25:40.765Z,13.00
2023-05-14T00:28:08.861Z,13.02
2023-05-14T00:30:36.509Z,13.01
2023-05-14T00:33:04.700Z,12.99
2023-05-14T00:35:35.548Z,12.90
2023-05-14T00:38:03.335Z,12.84
2023-05-14T00:40:31.093Z,12.81
2023-05-14T00:43:00.538Z,12.77
2023-05-14T00:45:29.109Z,12.74
2023-05-14T00:47:57.399Z,12.75
2023-05-14T00:50:25.394Z,12.72
2023-05-14T00:52:53.402Z,12.79
2023-05-14T00:55:22.714Z,12.76
2023-05-14T00:57:51.577Z,12.69
2023-05-14T01:00:21.386Z,12.65
2023-05-14T01:02:49.392Z,12.61
2023-05-14T01:05:17.570Z,12.65
2023-05-14T01:07:55.124Z,12.65
2023-05-14T01:10:29.649Z,12.57
2023-05-14T01:13:05.352Z,12.59
2023-05-14T01:15:37.793Z,12.55
2023-05-14T01:18:09.415Z,12.58
2023-05-14T01:20:37.424Z,12.55
2023-05-14T01:23:07.483Z,12.50
2023-05-14T01:25:35.301Z,12.47
2023-05-14T01:28:10.434Z,12.44
2023-05-14T01:30:41.322Z,12.42
2023-05-14T01:33:13.649Z,12.38
2023-05-14T01:35:42.045Z,12.37
2023-05-14T01:38:13.364Z,12.33
2023-05-14T01:40:43.052Z,12.35
2023-05-14T01:43:11.574Z,12.33
2023-05-14T01:45:39.668Z,12.38
2023-05-14T01:48:07.536Z,12.37
2023-05-14T01:50:35.483Z,12.38
2023-05-14T01:53:03.543Z,12.38
2023-05-14T01:55:32.634Z,12.35
2023-05-14T01:58:00.369Z,12.38
2023-05-14T02:00:28.647Z,12.44
2023-05-14T02:02:56.344Z,12.47
2023-05-14T02:05:24.528Z,12.50
2023-05-14T02:07:52.344Z,12.55
2023-05-14T02:10:20.843Z,12.65
2023-05-14T02:12:49.996Z,12.68
2023-05-14T02:15:17.813Z,12.68
2023-05-14T02:17:46.103Z,12.63
2023-05-14T02:20:14.895Z,12.68
2023-05-14T02:22:45.597Z,12.68
2023-05-14T02:25:13.417Z,12.69
2023-05-14T02:27:41.483Z,12.67
2023-05-14T02:30:13.018Z,12.68
2023-05-14T02:32:41.261Z,12.70
2023-05-14T02:35:10.039Z,12.75
2023-05-14T02:37:37.747Z,12.81
2023-05-14T02:40:06.854Z,12.87
2023-05-14T02:42:34.596Z,12.82
2023-05-14T02:45:02.302Z,12.81
2023-05-14T02:47:31.813Z,12.86
2023-05-14T02:49:59.672Z,12.87
2023-05-14T02:52:27.534Z,12.86
2023-05-14T02:54:55.657Z,12.87
2023-05-14T02:57:23.289Z,12.89
2023-05-14T02:59:50.959Z,12.94
2023-05-14T03:02:19.728Z,12.94
2023-05-14T03:04:49.204Z,12.95
2023-05-14T03:07:16.965Z,13.00
2023-05-14T03:09:45.612Z,13.00
2023-05-14T03:12:14.332Z,12.99
2023-05-14T03:14:42.510Z,13.03
2023-05-14T03:17:10.376Z,13.02
2023-05-14T03:19:38.125Z,13.05
2023-05-14T03:22:07.554Z,13.08
2023-05-14T03:24:36.273Z,13.10
2023-05-14T03:27:04.655Z,13.10
2023-05-14T03:29:32.406Z,13.11
2023-05-14T03:32:00.516Z,13.09
2023-05-14T03:34:28.247Z,13.09
2023-05-14T03:36:57.045Z,13.14
2023-05-14T03:39:26.118Z,13.10
2023-05-14T03:41:54.255Z,13.09
2023-05-14T03:44:21.951Z,13.13
2023-05-14T03:46:49.586Z,13.13
2023-05-14T03:49:17.730Z,13.14
2023-05-14T03:51:45.481Z,13.17
2023-05-14T03:54:13.184Z,13.22
2023-05-14T03:56:43.224Z,13.24
2023-05-14T03:59:10.934Z,13.20
2023-05-14T04:01:39.064Z,13.25
2023-05-14T04:04:07.020Z,13.24
2023-05-14T04:06:34.891Z,13.26
2023-05-14T04:09:03.535Z,13.28
2023-05-14T04:11:31.590Z,13.26
2023-05-14T04:14:00.535Z,13.26
2023-05-14T04:16:28.368Z,13.24
2023-05-14T04:18:56.151Z,13.29
2023-05-14T04:21:24.026Z,13.27
2023-05-14T04:23:52.050Z,13.27
2023-05-14T04:26:19.687Z,13.22
2023-05-14T04:28:47.389Z,13.22
2023-05-14T04:31:17.220Z,13.23
2023-05-14T04:33:44.933Z,13.22
2023-05-14T04:36:12.596Z,13.20
2023-05-14T04:38:41.632Z,13.12
2023-05-14T04:41:09.301Z,13.06
2023-05-14T04:43:37.454Z,13.09
2023-05-14T04:48:39.269Z,13.10
2023-05-14T04:51:07.354Z,13.07
2023-05-14T04:53:35.015Z,13.03
2023-05-14T04:56:03.039Z,13.02
2023-05-14T04:58:34.531Z,13.05
2023-05-14T05:01:04.163Z,13.12
2023-05-14T05:03:32.182Z,13.11
2023-05-14T05:06:01.291Z,13.12
2023-05-14T05:08:29.795Z,13.14
2023-05-14T05:10:57.503Z,13.14
2023-05-14T05:13:25.235Z,13.12
2023-05-14T05:15:53.384Z,13.13
2023-05-14T05:18:21.107Z,13.15
2023-05-14T05:20:48.860Z,13.23
2023-05-14T05:23:18.325Z,13.27
2023-05-14T05:25:46.037Z,13.38
2023-05-14T05:28:13.706Z,13.45
2023-05-14T05:30:41.887Z,13.54
2023-05-14T05:33:09.648Z,13.60
2023-05-14T05:35:38.155Z,13.67
2023-05-14T05:38:07.289Z,13.73
2023-05-14T05:40:36.440Z,13.78
2023-05-14T05:43:04.122Z,13.83
2023-05-14T05:45:31.876Z,13.88
2023-05-14T05:47:59.606Z,13.94
2023-05-14T05:50:27.744Z,13.97
2023-05-14T05:52:55.468Z,14.02
2023-05-14T05:55:23.311Z,14.11
2023-05-14T05:57:52.396Z,14.16
2023-05-14T06:00:21.049Z,14.26
2023-05-14T06:02:49.175Z,14.33
2023-05-14T06:05:17.026Z,14.39
2023-05-14T06:07:44.750Z,14.48
2023-05-14T06:10:12.376Z,14.59
2023-05-14T06:12:40.426Z,14.65
2023-05-14T06:15:10.848Z,14.66
2023-05-14T06:17:38.622Z,14.67
2023-05-14T06:20:07.898Z,14.75
2023-05-14T06:22:36.209Z,14.79
2023-05-14T06:25:04.339Z,14.79
2023-05-14T06:27:32.618Z,14.83
2023-05-14T06:30:00.293Z,14.87
2023-05-14T06:32:29.439Z,14.91
2023-05-14T06:34:57.545Z,14.95
2023-05-14T06:37:25.298Z,15.00
2023-05-14T06:39:53.626Z,15.01
2023-05-14T06:42:22.379Z,15.09
2023-05-14T06:44:50.066Z,15.13
2023-05-14T06:47:18.034Z,15.19
2023-05-14T06:49:47.154Z,15.25
2023-05-14T06:52:14.872Z,15.30
2023-05-14T06:54:43.339Z,15.33
2023-05-14T06:57:11.087Z,15.37
2023-05-14T06:59:38.824Z,15.41
2023-05-14T07:02:07.219Z,15.43
2023-05-14T07:04:35.130Z,15.52
2023-05-14T07:07:05.631Z,15.55
2023-05-14T07:09:34.003Z,15.60
2023-05-14T07:12:01.726Z,15.67
2023-05-14T07:14:29.400Z,15.73
2023-05-14T07:16:58.861Z,15.80
2023-05-14T07:19:28.543Z,15.86
2023-05-14T07:21:56.206Z,15.91
2023-05-14T07:24:25.737Z,15.95
2023-05-14T07:26:54.314Z,15.99
2023-05-14T07:29:22.123Z,16.09
2023-05-14T07:31:50.227Z,16.13
2023-05-14T07:34:18.036Z,16.20
2023-05-14T07:36:46.286Z,16.29
2023-05-14T07:39:14.156Z,16.33
2023-05-14T07:41:43.169Z,16.38
2023-05-14T07:44:10.968Z,16.42
2023-05-14T07:46:38.718Z,16.54
2023-05-14T07:49:06.458Z,16.61
2023-05-14T07:51:34.604Z,16.75
2023-05-14T07:54:02.355Z,16.84
2023-05-14T07:56:30.565Z,16.83
2023-05-14T07:58:59.836Z,16.80
2023-05-14T08:01:27.903Z,16.87
2023-05-14T08:03:56.025Z,16.95
2023-05-14T08:06:23.749Z,16.99
2023-05-14T08:08:51.753Z,17.10
2023-05-14T08:11:19.499Z,17.13
2023-05-14T08:13:47.246Z,17.27
2023-05-14T08:16:16.696Z,17.24
2023-05-14T08:18:44.481Z,17.21
2023-05-14T08:21:12.272Z,17.26
2023-05-14T08:23:40.321Z,17.33
2023-05-14T08:26:08.581Z,17.42
2023-05-14T08:28:36.715Z,17.43
2023-05-14T08:31:04.451Z,17.47
2023-05-14T08:33:34.569Z,17.60
2023-05-14T08:36:02.381Z,17.68
2023-05-14T08:38:30.114Z,17.82
2023-05-14T08:40:58.908Z,17.89
2023-05-14T08:43:30.371Z,17.92
2023-05-14T08:46:01.693Z,18.01
2023-05-14T08:48:33.517Z,18.03
2023-05-14T08:51:03.312Z,18.12
2023-05-14T08:53:32.126Z,18.20
2023-05-14T08:56:02.635Z,18.33
2023-05-14T08:58:30.089Z,18.41
2023-05-14T09:00:57.778Z,18.52
2023-05-14T09:03:26.054Z,18.65
2023-05-14T09:05:54.706Z,18.89
2023-05-14T09:08:24.473Z,18.94
2023-05-14T09:10:52.093Z,19.04
2023-05-14T09:13:19.729Z,19.29
2023-05-14T09:15:49.769Z,19.46
2023-05-14T09:18:18.528Z,19.63
2023-05-14T09:20:48.358Z,19.88
2023-05-14T09:23:16.444Z,20.07
2023-05-14T09:25:45.578Z,20.00
2023-05-14T09:28:13.260Z,20.01
2023-05-14T09:30:41.526Z,19.97
2023-05-14T09:33:10.413Z,19.95
2023-05-14T09:35:40.582Z,20.02
2023-05-14T09:38:09.291Z,20.18
2023-05-14T09:40:37.249Z,20.29
2023-05-14T09:43:06.532Z,20.46
2023-05-14T09:45:36.299Z,20.68
2023-05-14T09:48:04.291Z,20.67
2023-05-14T09:50:32.255Z,20.70
2023-05-14T09:53:00.247Z,20.86
2023-05-14T09:55:28.745Z,21.01
2023-05-14T09:57:56.504Z,21.11
2023-05-14T10:00:26.701Z,21.33
2023-05-14T10:02:56.167Z,21.43
2023-05-14T10:05:25.151Z,21.42
2023-05-14T10:07:55.305Z,21.52
2023-05-14T10:10:28.011Z,21.55
2023-05-14T10:12:59.419Z,21.63
2023-05-14T10:15:35.021Z,21.64
2023-05-14T10:18:09.557Z,21.61
2023-05-14T10:20:39.528Z,21.79
2023-05-14T10:23:08.286Z,22.00
2023-05-14T10:25:37.484Z,21.86
2023-05-14T10:28:07.309Z,21.57
2023-05-14T10:30:36.368Z,21.18
2023-05-14T10:33:13.683Z,20.94
2023-05-14T10:35:58.305Z,20.69
2023-05-14T10:38:28.592Z,20.56
2023-05-14T10:41:03.909Z,20.61
2023-05-14T10:43:37.711Z,20.75
2023-05-14T10:46:08.241Z,20.69
2023-05-14T10:48:37.570Z,20.56
2023-05-14T10:51:08.110Z,20.44
2023-05-14T10:53:37.946Z,20.30
2023-05-14T10:56:07.730Z,20.15
2023-05-14T10:58:38.601Z,20.03
2023-05-14T11:01:09.404Z,19.90
2023-05-14T11:03:42.747Z,19.77
2023-05-14T11:06:11.682Z,19.74
2023-05-14T11:08:40.040Z,19.72
2023-05-14T11:11:08.289Z,19.70
2023-05-14T11:13:36.444Z,19.68
2023-05-14T11:16:18.979Z,19.71
2023-05-14T11:18:54.758Z,19.71
2023-05-14T11:21:22.934Z,19.71
2023-05-14T11:23:51.011Z,19.73
2023-05-14T11:26:21.411Z,19.71
2023-05-14T11:28:49.959Z,19.68
2023-05-14T11:31:17.648Z,19.68
2023-05-14T11:33:45.548Z,19.66
2023-05-14T11:36:14.680Z,19.63
2023-05-14T11:38:49.187Z,19.71
2023-05-14T11:41:16.926Z,19.65
2023-05-14T11:43:44.705Z,19.66
2023-05-14T11:46:19.079Z,19.65
2023-05-14T11:48:46.829Z,19.67
2023-05-14T11:51:16.463Z,19.68
2023-05-14T11:53:44.185Z,19.68
2023-05-14T11:56:11.900Z,19.73
2023-05-14T11:58:40.087Z,19.74
2023-05-14T12:01:07.817Z,19.75
2023-05-14T12:03:36.170Z,19.84
2023-05-14T12:06:08.218Z,19.90
2023-05-14T12:08:38.541Z,19.98
2023-05-14T12:11:06.823Z,20.04
2023-05-14T12:13:34.995Z,20.11
2023-05-14T12:16:03.759Z,20.17
2023-05-14T12:18:32.981Z,20.16
2023-05-14T12:21:05.136Z,20.15
2023-05-14T12:23:34.507Z,20.14
2023-05-14T12:26:06.041Z,20.16
2023-05-14T12:28:37.723Z,20.17
2023-05-14T12:31:06.563Z,20.11
2023-05-14T12:33:34.853Z,20.15
2023-05-14T12:36:10.434Z,20.17
2023-05-14T12:38:48.285Z,20.19
2023-05-14T12:41:17.329Z,20.29
2023-05-14T12:43:45.660Z,20.39
2023-05-14T12:46:13.704Z,20.41
2023-05-14T12:48:41.429Z,20.48
2023-05-14T12:51:09.570Z,20.47
2023-05-14T12:53:37.180Z,20.44
2023-05-14T12:56:05.495Z,20.37
2023-05-14T12:58:34.854Z,20.19
2023-05-14T13:01:02.576Z,20.10
2023-05-14T13:03:31.906Z,20.02
2023-05-14T13:06:00.174Z,19.95
2023-05-14T13:08:27.840Z,19.85
2023-05-14T13:10:56.594Z,19.86
2023-05-14T13:13:24.621Z,19.78
2023-05-14T13:15:54.031Z,19.76
2023-05-14T13:18:22.339Z,19.79
2023-05-14T13:20:50.021Z,19.79
2023-05-14T13:23:17.968Z,19.88
2023-05-14T13:25:46.524Z,19.87
2023-05-14T13:28:15.903Z,19.91
2023-05-14T13:31:06.549Z,19.96
2023-05-14T13:33:36.153Z,19.92
2023-05-14T13:36:04.027Z,19.95
2023-05-14T13:38:32.166Z,19.96
2023-05-14T13:41:02.523Z,20.00
2023-05-14T13:43:30.994Z,19.96
2023-05-14T13:45:59.002Z,19.97
2023-05-14T13:48:28.922Z,19.97
2023-05-14T13:50:56.672Z,19.94
2023-05-14T13:53:25.963Z,19.97
2023-05-14T13:55:56.731Z,20.09
2023-05-14T13:58:25.235Z,20.08
2023-05-14T14:00:53.537Z,20.14
2023-05-14T14:03:21.274Z,20.19
2023-05-14T14:05:51.886Z,20.13
2023-05-14T14:08:24.000Z,20.25
2023-05-14T14:10:54.327Z,20.15
2023-05-14T14:13:23.219Z,20.12
2023-05-14T14:15:51.126Z,20.12
2023-05-14T14:18:18.976Z,20.11
2023-05-14T14:20:46.691Z,20.23
2023-05-14T14:23:15.719Z,20.11
2023-05-14T14:25:43.507Z,20.10
2023-05-14T14:28:11.510Z,20.11
2023-05-14T14:30:39.144Z,20.17
2023-05-14T14:33:07.555Z,20.21
2023-05-14T14:35:35.723Z,20.27
2023-05-14T14:38:03.405Z,20.27
2023-05-14T14:40:34.400Z,20.39
2023-05-14T14:43:02.306Z,20.41
2023-05-14T14:45:30.032Z,20.37
2023-05-14T14:48:28.644Z,20.39
2023-05-14T14:50:56.922Z,20.58
2023-05-14T14:53:25.557Z,20.55
2023-05-14T14:55:55.321Z,20.55
2023-05-14T14:58:23.045Z,20.45
2023-05-14T15:00:52.069Z,20.40
2023-05-14T15:03:20.383Z,20.30
2023-05-14T15:05:48.228Z,20.20
2023-05-14T15:08:16.371Z,20.10
2023-05-14T15:10:45.810Z,20.02
2023-05-14T15:13:15.354Z,19.99
2023-05-14T15:15:43.065Z,19.92
2023-05-14T15:18:11.500Z,19.86
2023-05-14T15:20:39.301Z,19.85
2023-05-14T15:23:07.188Z,19.74
2023-05-14T15:25:35.645Z,19.72
2023-05-14T15:28:03.770Z,19.70
2023-05-14T15:30:32.907Z,19.62
2023-05-14T15:33:01.173Z,19.61
2023-05-14T15:35:28.915Z,19.63
2023-05-14T15:37:58.014Z,19.61
2023-05-14T15:40:26.360Z,19.59
2023-05-14T15:42:54.239Z,19.58
2023-05-14T15:45:22.476Z,19.57
2023-05-14T15:47:51.590Z,19.54
2023-05-14T15:50:19.820Z,19.52
2023-05-14T15:52:47.565Z,19.51
2023-05-14T15:55:15.484Z,19.52
2023-05-14T15:57:43.547Z,19.65
2023-05-14T16:00:12.775Z,19.51
2023-05-14T16:02:42.205Z,19.46
2023-05-14T16:05:11.808Z,19.44
2023-05-14T16:07:39.479Z,19.41
2023-05-14T16:10:08.601Z,19.42
2023-05-14T16:12:36.278Z,19.44
2023-05-14T16:15:04.195Z,19.42
2023-05-14T16:17:33.064Z,19.37
2023-05-14T16:20:01.083Z,19.35
2023-05-14T16:22:33.610Z,19.34
2023-05-14T16:25:03.389Z,19.28
2023-05-14T16:27:32.016Z,19.24
2023-05-14T16:29:59.982Z,19.25
2023-05-14T16:32:27.933Z,19.23
2023-05-14T16:34:56.425Z,19.18
2023-05-14T16:37:24.699Z,19.17
2023-05-14T16:39:53.763Z,19.16
2023-05-14T16:42:21.502Z,19.14
2023-05-14T16:44:50.471Z,19.10
2023-05-14T16:47:18.160Z,19.06
2023-05-14T16:49:46.240Z,19.05
2023-05-14T16:52:14.239Z,19.02
2023-05-14T16:54:41.890Z,19.01
2023-05-14T16:57:10.985Z,18.99
2023-05-14T16:59:39.203Z,18.96
2023-05-14T17:02:07.847Z,18.93
2023-05-14T17:04:38.687Z,18.88
2023-05-14T17:07:07.021Z,18.81
2023-05-14T17:09:34.799Z,18.82
2023-05-14T17:12:02.895Z,18.75
2023-05-14T17:14:32.392Z,18.70
2023-05-14T17:17:00.064Z,18.62
2023-05-14T17:19:27.813Z,18.52
2023-05-14T17:21:56.010Z,18.40
2023-05-14T17:24:23.755Z,18.31
2023-05-14T17:26:51.844Z,18.22
2023-05-14T17:29:19.529Z,18.15
2023-05-14T17:31:49.196Z,18.07
2023-05-14T17:34:17.927Z,18.02
2023-05-14T17:36:45.823Z,17.98
2023-05-14T17:39:13.850Z,17.97
2023-05-14T17:41:41.998Z,17.96
2023-05-14T17:44:12.554Z,17.90
2023-05-14T17:46:42.455Z,17.85
2023-05-14T17:49:12.449Z,17.78
2023-05-14T17:51:40.144Z,17.78
2023-05-14T17:54:08.190Z,17.77
2023-05-14T17:56:35.968Z,17.74
2023-05-14T17:59:03.713Z,17.71
2023-05-14T18:01:32.070Z,17.65
2023-05-14T18:03:59.812Z,17.57
2023-05-14T18:06:28.959Z,17.54
2023-05-14T18:08:57.129Z,17.46
2023-05-14T18:11:24.826Z,17.42
2023-05-14T18:13:52.959Z,17.34
2023-05-14T18:16:20.709Z,17.29
2023-05-14T18:18:48.412Z,17.23
2023-05-14T18:21:16.529Z,17.22
2023-05-14T18:23:46.536Z,17.22
2023-05-14T18:26:14.267Z,17.13
2023-05-14T18:28:42.108Z,17.04
2023-05-14T18:31:10.379Z,17.02
2023-05-14T18:33:38.097Z,17.01
2023-05-14T18:36:06.788Z,16.94
2023-05-14T18:38:34.573Z,16.87
2023-05-14T18:41:03.798Z,16.84
2023-05-14T18:46:18.089Z,16.68
2023-05-14T18:48:45.939Z,16.67
2023-05-14T18:51:13.771Z,16.62
2023-05-14T18:53:41.577Z,16.53
2023-05-14T18:56:11.670Z,16.49
2023-05-14T18:58:39.403Z,16.43
2023-05-14T19:01:07.150Z,16.41
2023-05-14T19:03:36.150Z,16.32
2023-05-14T19:06:03.856Z,16.29
2023-05-14T19:08:31.522Z,16.30
2023-05-14T19:10:59.585Z,16.26
2023-05-14T19:13:30.216Z,16.19
2023-05-14T19:15:58.411Z,16.13
2023-05-14T19:18:26.557Z,16.09
2023-05-14T19:20:56.513Z,15.99
2023-05-14T19:23:24.650Z,15.85
2023-05-14T19:25:52.378Z,15.80
2023-05-14T19:28:20.056Z,15.68
2023-05-14T19:30:51.105Z,15.67
2023-05-14T19:33:19.128Z,15.67
2023-05-14T19:35:47.276Z,15.61
2023-05-14T19:38:15.299Z,15.60
2023-05-14T19:40:44.395Z,15.56
2023-05-14T19:43:12.844Z,15.49
2023-05-14T19:45:42.927Z,15.47
2023-05-14T19:48:12.443Z,15.43
2023-05-14T19:50:41.402Z,15.39
2023-05-14T19:53:09.411Z,15.33
2023-05-14T19:55:37.090Z,15.30
2023-05-14T19:58:04.735Z,15.24
2023-05-14T20:00:32.971Z,15.19
2023-05-14T20:03:00.906Z,15.13
2023-05-14T20:05:30.955Z,15.09
2023-05-14T20:07:59.073Z,15.04
2023-05-14T20:10:27.042Z,15.01
2023-05-14T20:12:55.374Z,15.01
2023-05-14T20:15:23.094Z,14.96
2023-05-14T20:17:50.957Z,14.95
2023-05-14T20:20:19.199Z,14.89
2023-05-14T20:22:48.230Z,14.82
2023-05-14T20:25:16.162Z,14.76
2023-05-14T20:27:44.307Z,14.65
2023-05-14T20:30:12.405Z,14.56
2023-05-14T20:32:40.154Z,14.54
2023-05-14T20:35:09.092Z,14.57
2023-05-14T20:37:37.849Z,14.53
2023-05-14T20:40:10.588Z,14.49
2023-05-14T20:42:38.358Z,14.43
2023-05-14T20:45:07.784Z,14.42
2023-05-14T20:47:36.498Z,14.40
2023-05-14T20:50:04.668Z,14.40
2023-05-14T20:52:32.429Z,14.32
2023-05-14T20:55:01.947Z,14.20
2023-05-14T20:57:31.486Z,14.17
2023-05-14T20:59:59.139Z,14.13
2023-05-14T21:02:27.376Z,14.12
2023-05-14T21:04:55.201Z,14.10
2023-05-14T21:07:22.933Z,14.07
2023-05-14T21:09:52.849Z,14.02
2023-05-14T21:12:20.637Z,14.01
2023-05-14T21:14:49.655Z,13.99
2023-05-14T21:17:17.775Z,13.95
2023-05-14T21:19:45.428Z,13.96
2023-05-14T21:22:14.040Z,13.97
2023-05-14T21:24:42.201Z,13.91
2023-05-14T21:27:09.905Z,13.90
2023-05-14T21:29:37.552Z,13.88
2023-05-14T21:32:07.829Z,13.81
2023-05-14T21:34:35.589Z,13.73
2023-05-14T21:37:03.747Z,13.66
2023-05-14T21:39:31.444Z,13.58
2023-05-14T21:41:59.411Z,13.51
2023-05-14T21:44:27.120Z,13.44
2023-05-14T21:46:55.159Z,13.44
2023-05-14T21:49:24.180Z,13.40
2023-05-14T21:51:54.014Z,13.39
2023-05-14T21:54:22.389Z,13.43
2023-05-14T21:56:50.160Z,13.40
2023-05-14T21:59:18.309Z,13.39
2023-05-14T22:02:05.363Z,13.32
2023-05-14T22:04:36.174Z,13.29
2023-05-14T22:07:04.353Z,13.20
2023-05-14T22:09:32.014Z,13.17
2023-05-14T22:12:00.163Z,13.15
2023-05-14T22:14:27.852Z,13.14
2023-05-14T22:16:55.678Z,13.15
2023-05-14T22:19:23.830Z,13.10
2023-05-14T22:21:52.895Z,13.13
2023-05-14T22:24:20.792Z,13.12
2023-05-14T22:26:49.452Z,13.17
2023-05-14T22:29:17.146Z,13.19
2023-05-14T22:31:45.236Z,13.16
2023-05-14T22:34:12.897Z,13.09
2023-05-14T22:36:40.654Z,13.00
2023-05-14T22:39:11.441Z,12.99
2023-05-14T22:41:41.083Z,12.96
2023-05-14T22:44:09.274Z,12.93
2023-05-14T22:46:37.075Z,12.88
2023-05-14T22:49:04.773Z,12.90
2023-05-14T22:51:32.965Z,12.84
2023-05-14T22:54:00.610Z,12.83
2023-05-14T22:56:29.906Z,12.77
2023-05-14T22:58:57.859Z,12.73
2023-05-14T23:01:25.798Z,12.75
2023-05-14T23:03:53.514Z,12.72
2023-05-14T23:06:22.534Z,12.72
2023-05-14T23:08:50.232Z,12.69
2023-05-14T23:11:18.573Z,12.69
2023-05-14T23:13:47.974Z,12.68
2023-05-14T23:16:15.994Z,12.68
2023-05-14T23:18:44.042Z,12.65
2023-05-14T23:21:13.116Z,12.59
2023-05-14T23:23:40.734Z,12.55
2023-05-14T23:26:08.458Z,12.51
2023-05-14T23:28:36.525Z,12.45
2023-05-14T23:31:05.663Z,12.43
2023-05-14T23:33:33.336Z,12.38
2023-05-14T23:36:01.441Z,12.36
2023-05-14T23:38:29.158Z,12.33
2023-05-14T23:40:57.322Z,12.31
2023-05-14T23:43:25.086Z,12.33
2023-05-14T23:45:52.834Z,12.32
2023-05-14T23:48:22.893Z,12.29
2023-05-14T23:50:50.714Z,12.21
2023-05-14T23:53:18.846Z,12.12
2023-05-14T23:55:47.588Z,12.09
2023-05-14T23:58:15.304Z,12.13
